Tara — FVNM — position and weather

sailwx.info

Track history (hours):
 
Tides and Currents Weather Stations Pressure Air Temp Water Temp Dewpoint Dewpoint Depression Visibility Wind Speed Wind Dir Waves Ship Positions

Oceanographic research ship Tara (France)

Ex Antarctica.

Ship's website: http://www.taraexpeditions.org/site/index.php?id_lang_global_new=uk

Last reported at 2020-Feb-17 14:28 UTC. Time now 2020-Jul-03 20:29 UTC.
Position N 49°29' E 000°08'.
Warning: this ship's position is months out of date.

Length 36 m; beam 10 m.

Type: Other ship. MMSI: 226070000.

Date/timePositionNaut miles runAvg speedWind from/ knotsBaromVisibWave heightAir tempDewpointWater temp
2020-Feb-17 14:28N 49°29' E 000°08'0 0.0
2020-Feb-17 12:30N 49°29' E 000°08'0 0.0
2020-Feb-17 08:59N 49°29' E 000°08'0 0.0
2020-Feb-17 08:30N 49°29' E 000°08'0 0.0
2020-Feb-17 08:00N 49°29' E 000°08'0 0.0
2020-Feb-17 05:59N 49°29' E 000°08'0 0.0
2020-Feb-17 04:57N 49°29' E 000°08'0 0.0
2020-Feb-17 03:57N 49°29' E 000°08'0 0.0
2020-Feb-17 00:59N 49°29' E 000°08'0 0.0
2020-Feb-16 23:59N 49°29' E 000°08'0 0.0
2020-Feb-16 23:29N 49°29' E 000°08'0 0.0
2020-Feb-16 21:58N 49°29' E 000°08'0 0.0
2020-Feb-16 21:26N 49°29' E 000°08'0 0.0
2020-Feb-16 19:29N 49°29' E 000°08'0 0.0
2020-Feb-16 18:58N 49°29' E 000°08'0 0.0
2020-Feb-16 18:27N 49°29' E 000°08'0 0.0
2020-Feb-16 17:30N 49°29' E 000°08'0 0.0
2020-Feb-16 17:00N 49°29' E 000°08'0 0.0
2020-Feb-16 16:00N 49°29' E 000°08'0 0.0
2020-Feb-16 14:30N 49°29' E 000°08'0 0.0
2020-Feb-16 14:00N 49°29' E 000°08'0 0.0
2020-Feb-16 13:30N 49°29' E 000°08'4 4.3
2020-Feb-16 12:31N 49°30' E 000°02'11 5.3
2020-Feb-16 10:30N 49°32' W 000°14'2 3.4
2020-Feb-16 10:00N 49°33' W 000°17'3 3.4
2020-Feb-16 09:00N 49°34' W 000°22'5 3.1
2020-Feb-16 07:30N 49°35' W 000°29'2 5.0
2020-Feb-16 07:00N 49°36' W 000°33'8 5.7
2020-Feb-16 05:30N 49°38' W 000°45'51 7.8
2020-Feb-15 23:01N 49°43' W 002°03'14 9.6
2020-Feb-15 21:30N 49°33' W 002°18'19 7.5
2020-Feb-15 19:00N 49°21' W 002°40'14 6.8
2020-Feb-15 17:00N 49°15' W 002°59'3 6.6
2020-Feb-15 16:31N 49°13' W 003°03'7 6.4
2020-Feb-15 15:21N 49°10' W 003°13'65 7.0
2020-Feb-15 06:00N 48°38' W 004°40'32 8.1
2020-Feb-15 02:01N 48°06' W 004°50'10 5.2
2020-Feb-15 00:01N 47°58' W 004°41'44 5.2
2020-Feb-14 15:38N 47°42' W 003°40'7 6.6
2020-Feb-14 14:31N 47°40' W 003°30'3 5.6
2020-Feb-14 14:01N 47°41' W 003°26'4 4.0
2020-Feb-14 13:00N 47°44' W 003°22'0 0.0
2020-Feb-14 11:58N 47°44' W 003°22'0 0.0
2020-Feb-14 10:29N 47°44' W 003°22'0 0.0
2020-Feb-14 08:59N 47°44' W 003°22'0 0.0
2020-Feb-14 08:30N 47°44' W 003°22'0 0.0
2020-Feb-14 06:59N 47°44' W 003°22'0 0.0
2020-Feb-14 05:30N 47°44' W 003°22'0 0.0
2020-Feb-14 05:00N 47°44' W 003°22'0 0.0
2020-Feb-14 04:00N 47°44' W 003°22'0 0.0
2020-Feb-14 02:30N 47°44' W 003°22'0 0.0
2020-Feb-14 01:30N 47°44' W 003°22'0 0.0
2020-Feb-13 23:30N 47°44' W 003°22'0 0.0
2020-Feb-13 22:29N 47°44' W 003°22'0 0.0
2020-Feb-13 21:59N 47°44' W 003°22'0 0.0
2020-Feb-13 21:29N 47°44' W 003°22'0 0.0
2020-Feb-13 20:29N 47°44' W 003°22'0 0.0
2020-Feb-13 19:59N 47°44' W 003°22'0 0.0
2020-Feb-13 17:58N 47°44' W 003°22'0 0.0
2020-Feb-13 17:00N 47°44' W 003°22'0 0.0
2020-Feb-13 16:30N 47°44' W 003°22'0 0.0
2020-Feb-13 13:29N 47°44' W 003°22'0 0.0
2020-Feb-13 10:30N 47°44' W 003°22'0 0.0
2020-Feb-13 09:30N 47°44' W 003°22'0 0.0
2020-Feb-13 08:30N 47°44' W 003°22'0 0.0
2020-Feb-13 07:59N 47°44' W 003°22'0 0.0
2020-Feb-13 07:29N 47°44' W 003°22'0 0.0
2020-Feb-13 06:59N 47°44' W 003°22'0 0.0
2020-Feb-13 05:57N 47°44' W 003°22'0 0.0
2020-Feb-13 04:59N 47°44' W 003°22'0 0.0
2020-Feb-13 03:59N 47°44' W 003°22'0 0.0
2020-Feb-13 03:29N 47°44' W 003°22'0 0.0
2020-Feb-13 00:30N 47°44' W 003°22'0 0.0
2020-Feb-12 22:30N 47°44' W 003°22'0 0.0
2020-Feb-12 22:00N 47°44' W 003°22'0 0.0
2020-Feb-12 21:00N 47°44' W 003°22'0 0.0
2020-Feb-12 19:30N 47°44' W 003°22'0 0.0
2020-Feb-12 17:00N 47°44' W 003°22'0 0.0
2020-Feb-12 15:28N 47°44' W 003°22'0 0.0
2020-Feb-12 14:58N 47°44' W 003°22'0 0.0
2020-Feb-12 13:58N 47°44' W 003°22'0 0.0
2020-Feb-12 11:00N 47°44' W 003°22'0 0.0
2020-Feb-12 09:30N 47°44' W 003°22'0 0.0
2020-Feb-12 09:00N 47°44' W 003°22'0 0.0
2020-Feb-12 08:30N 47°44' W 003°22'0 0.0
2020-Feb-12 03:00N 47°44' W 003°22'0 0.0
2020-Feb-12 02:00N 47°44' W 003°22'0 0.0
2020-Feb-12 01:30N 47°44' W 003°22'0 0.0
2020-Feb-12 00:58N 47°44' W 003°22'0 0.0
2020-Feb-12 00:00N 47°44' W 003°22'0 0.0
2020-Feb-11 23:30N 47°44' W 003°22'0 0.0
2020-Feb-11 20:29N 47°44' W 003°22'0 0.0
2020-Feb-11 19:29N 47°44' W 003°22'0 0.0
2020-Feb-11 18:28N 47°44' W 003°22'0 0.0
2020-Feb-11 17:58N 47°44' W 003°22'0 0.0
2020-Feb-11 17:00N 47°44' W 003°22'0 0.0
2020-Feb-11 15:57N 47°44' W 003°22'0 0.0
2020-Feb-11 15:30N 47°44' W 003°22'0 0.0
2020-Feb-11 14:00N 47°44' W 003°22'0 0.0
2020-Feb-11 12:30N 47°44' W 003°22'0 0.0
2020-Feb-11 09:00N 47°44' W 003°22'0 0.0
2020-Feb-11 07:59N 47°44' W 003°22'0 0.0
2020-Feb-11 07:29N 47°44' W 003°22'0 0.0
2020-Feb-11 04:29N 47°44' W 003°22'0 0.0
2020-Feb-11 03:29N 47°44' W 003°22'0 0.0
2020-Feb-11 01:00N 47°44' W 003°22'0 0.0
2020-Feb-11 00:30N 47°44' W 003°22'0 0.0
2020-Feb-11 00:00N 47°44' W 003°22'0 0.0
2020-Feb-10 22:00N 47°44' W 003°22'0 0.0
2020-Feb-10 21:30N 47°44' W 003°22'0 0.0
2020-Feb-10 20:30N 47°44' W 003°22'0 0.0
2020-Feb-10 17:59N 47°44' W 003°22'0 0.0
2020-Feb-10 17:29N 47°44' W 003°22'0 0.0
2020-Feb-10 16:29N 47°44' W 003°22'0 0.0
2020-Feb-10 15:29N 47°44' W 003°22'0 0.0
2020-Feb-10 14:28N 47°44' W 003°22'0 0.0
2020-Feb-10 13:59N 47°44' W 003°22'0 0.0
2020-Feb-10 12:30N 47°44' W 003°22'0 0.0
2020-Feb-10 09:56N 47°44' W 003°22'0 0.0
2020-Feb-10 09:29N 47°44' W 003°22'0 0.0
2020-Feb-10 08:29N 47°44' W 003°22'0 0.0
2020-Feb-10 07:28N 47°44' W 003°22'0 0.0
2020-Feb-10 06:30N 47°44' W 003°22'0 0.0
2020-Feb-10 04:30N 47°44' W 003°22'0 0.0
2020-Feb-10 03:30N 47°44' W 003°22'0 0.0
2020-Feb-10 01:59N 47°44' W 003°22'0 0.0
2020-Feb-09 23:29N 47°44' W 003°22'0 0.0
2020-Feb-09 22:29N 47°44' W 003°22'0 0.0
2020-Feb-09 21:59N 47°44' W 003°22'0 0.0
2020-Feb-09 19:58N 47°44' W 003°22'0 0.0
2020-Feb-09 18:28N 47°44' W 003°22'0 0.0
2020-Feb-09 17:58N 47°44' W 003°22'0 0.0
2020-Feb-09 15:00N 47°44' W 003°22'0 0.0
2020-Feb-09 13:59N 47°44' W 003°22'0 0.0
2020-Feb-09 11:00N 47°44' W 003°22'0 0.0
2020-Feb-09 08:28N 47°44' W 003°22'0 0.0
2020-Feb-09 07:58N 47°44' W 003°22'0 0.0
2020-Feb-09 05:26N 47°44' W 003°22'0 0.0
2020-Feb-09 04:59N 47°44' W 003°22'0 0.0
2020-Feb-09 04:29N 47°44' W 003°22'0 0.0
2020-Feb-09 03:59N 47°44' W 003°22'0 0.0
2020-Feb-09 03:29N 47°44' W 003°22'0 0.0
2020-Feb-08 23:58N 47°44' W 003°22'0 0.0
2020-Feb-08 23:28N 47°44' W 003°22'0 0.0
2020-Feb-08 19:29N 47°44' W 003°22'0 0.0
2020-Feb-08 18:29N 47°44' W 003°22'0 0.0
2020-Feb-08 17:28N 47°44' W 003°22'0 0.0
2020-Feb-08 15:28N 47°44' W 003°22'0 0.0
2020-Feb-08 12:29N 47°44' W 003°22'0 0.0
2020-Feb-08 11:29N 47°44' W 003°22'0 0.0
2020-Feb-08 10:28N 47°44' W 003°22'0 0.0
2020-Feb-08 09:58N 47°44' W 003°22'0 0.0
2020-Feb-08 08:59N 47°44' W 003°22'0 0.0
2020-Feb-08 06:29N 47°44' W 003°22'0 0.0
2020-Feb-08 04:00N 47°44' W 003°22'0 0.0
2020-Feb-08 03:24N 47°44' W 003°22'0 0.0
2020-Feb-08 01:29N 47°44' W 003°22'0 0.0
2020-Feb-08 00:29N 47°44' W 003°22'0 0.0
2020-Feb-07 23:59N 47°44' W 003°22'0 0.0
2020-Feb-07 22:29N 47°44' W 003°22'0 0.0
2020-Feb-07 21:29N 47°44' W 003°22'0 0.0
2020-Feb-07 20:00N 47°44' W 003°22'0 0.0
2020-Feb-07 19:30N 47°44' W 003°22'0 0.0
2020-Feb-07 19:00N 47°44' W 003°22'0 0.0
2020-Feb-07 16:30N 47°44' W 003°22'0 0.0
2020-Feb-07 15:23N 47°44' W 003°22'  
Track history (hours):
 
Tides and Currents Weather Stations Pressure Air Temp Water Temp Dewpoint Dewpoint Depression Visibility Wind Speed Wind Dir Waves Ship Positions

Oceanographic research ship Tara (France)

Ex Antarctica.

Ship's website: http://www.taraexpeditions.org/site/index.php?id_lang_global_new=uk

Last reported at 2020-Feb-17 14:28 UTC. Time now 2020-Jul-03 20:29 UTC.
Position N 49°29' E 000°08'.
Warning: this ship's position is months out of date.

Length 36 m; beam 10 m.

Type: Other ship. MMSI: 226070000.

Date/timePositionNaut miles runAvg speedWind from/ knotsBaromVisibWave heightAir tempDewpointWater temp
2020-Feb-17 14:28N 49°29' E 000°08'0 0.0
2020-Feb-17 12:30N 49°29' E 000°08'0 0.0
2020-Feb-17 08:59N 49°29' E 000°08'0 0.0
2020-Feb-17 08:30N 49°29' E 000°08'0 0.0
2020-Feb-17 08:00N 49°29' E 000°08'0 0.0
2020-Feb-17 05:59N 49°29' E 000°08'0 0.0
2020-Feb-17 04:57N 49°29' E 000°08'0 0.0
2020-Feb-17 03:57N 49°29' E 000°08'0 0.0
2020-Feb-17 00:59N 49°29' E 000°08'0 0.0
2020-Feb-16 23:59N 49°29' E 000°08'0 0.0
2020-Feb-16 23:29N 49°29' E 000°08'0 0.0
2020-Feb-16 21:58N 49°29' E 000°08'0 0.0
2020-Feb-16 21:26N 49°29' E 000°08'0 0.0
2020-Feb-16 19:29N 49°29' E 000°08'0 0.0
2020-Feb-16 18:58N 49°29' E 000°08'0 0.0
2020-Feb-16 18:27N 49°29' E 000°08'0 0.0
2020-Feb-16 17:30N 49°29' E 000°08'0 0.0
2020-Feb-16 17:00N 49°29' E 000°08'0 0.0
2020-Feb-16 16:00N 49°29' E 000°08'0 0.0
2020-Feb-16 14:30N 49°29' E 000°08'0 0.0
2020-Feb-16 14:00N 49°29' E 000°08'0 0.0
2020-Feb-16 13:30N 49°29' E 000°08'4 4.3
2020-Feb-16 12:31N 49°30' E 000°02'11 5.3
2020-Feb-16 10:30N 49°32' W 000°14'2 3.4
2020-Feb-16 10:00N 49°33' W 000°17'3 3.4
2020-Feb-16 09:00N 49°34' W 000°22'5 3.1
2020-Feb-16 07:30N 49°35' W 000°29'2 5.0
2020-Feb-16 07:00N 49°36' W 000°33'8 5.7
2020-Feb-16 05:30N 49°38' W 000°45'51 7.8
2020-Feb-15 23:01N 49°43' W 002°03'14 9.6
2020-Feb-15 21:30N 49°33' W 002°18'19 7.5
2020-Feb-15 19:00N 49°21' W 002°40'14 6.8
2020-Feb-15 17:00N 49°15' W 002°59'3 6.6
2020-Feb-15 16:31N 49°13' W 003°03'7 6.4
2020-Feb-15 15:21N 49°10' W 003°13'65 7.0
2020-Feb-15 06:00N 48°38' W 004°40'32 8.1
2020-Feb-15 02:01N 48°06' W 004°50'10 5.2
2020-Feb-15 00:01N 47°58' W 004°41'44 5.2
2020-Feb-14 15:38N 47°42' W 003°40'7 6.6
2020-Feb-14 14:31N 47°40' W 003°30'3 5.6
2020-Feb-14 14:01N 47°41' W 003°26'4 4.0
2020-Feb-14 13:00N 47°44' W 003°22'0 0.0
2020-Feb-14 11:58N 47°44' W 003°22'0 0.0
2020-Feb-14 10:29N 47°44' W 003°22'0 0.0
2020-Feb-14 08:59N 47°44' W 003°22'0 0.0
2020-Feb-14 08:30N 47°44' W 003°22'0 0.0
2020-Feb-14 06:59N 47°44' W 003°22'0 0.0
2020-Feb-14 05:30N 47°44' W 003°22'0 0.0
2020-Feb-14 05:00N 47°44' W 003°22'0 0.0
2020-Feb-14 04:00N 47°44' W 003°22'0 0.0
2020-Feb-14 02:30N 47°44' W 003°22'0 0.0
2020-Feb-14 01:30N 47°44' W 003°22'0 0.0
2020-Feb-13 23:30N 47°44' W 003°22'0 0.0
2020-Feb-13 22:29N 47°44' W 003°22'0 0.0
2020-Feb-13 21:59N 47°44' W 003°22'0 0.0
2020-Feb-13 21:29N 47°44' W 003°22'0 0.0
2020-Feb-13 20:29N 47°44' W 003°22'0 0.0
2020-Feb-13 19:59N 47°44' W 003°22'0 0.0
2020-Feb-13 17:58N 47°44' W 003°22'0 0.0
2020-Feb-13 17:00N 47°44' W 003°22'0 0.0
2020-Feb-13 16:30N 47°44' W 003°22'0 0.0
2020-Feb-13 13:29N 47°44' W 003°22'0 0.0
2020-Feb-13 10:30N 47°44' W 003°22'0 0.0
2020-Feb-13 09:30N 47°44' W 003°22'0 0.0
2020-Feb-13 08:30N 47°44' W 003°22'0 0.0
2020-Feb-13 07:59N 47°44' W 003°22'0 0.0
2020-Feb-13 07:29N 47°44' W 003°22'0 0.0
2020-Feb-13 06:59N 47°44' W 003°22'0 0.0
2020-Feb-13 05:57N 47°44' W 003°22'0 0.0
2020-Feb-13 04:59N 47°44' W 003°22'0 0.0
2020-Feb-13 03:59N 47°44' W 003°22'0 0.0
2020-Feb-13 03:29N 47°44' W 003°22'0 0.0
2020-Feb-13 00:30N 47°44' W 003°22'0 0.0
2020-Feb-12 22:30N 47°44' W 003°22'0 0.0
2020-Feb-12 22:00N 47°44' W 003°22'0 0.0
2020-Feb-12 21:00N 47°44' W 003°22'0 0.0
2020-Feb-12 19:30N 47°44' W 003°22'0 0.0
2020-Feb-12 17:00N 47°44' W 003°22'0 0.0
2020-Feb-12 15:28N 47°44' W 003°22'0 0.0
2020-Feb-12 14:58N 47°44' W 003°22'0 0.0
2020-Feb-12 13:58N 47°44' W 003°22'0 0.0
2020-Feb-12 11:00N 47°44' W 003°22'0 0.0
2020-Feb-12 09:30N 47°44' W 003°22'0 0.0
2020-Feb-12 09:00N 47°44' W 003°22'0 0.0
2020-Feb-12 08:30N 47°44' W 003°22'0 0.0
2020-Feb-12 03:00N 47°44' W 003°22'0 0.0
2020-Feb-12 02:00N 47°44' W 003°22'0 0.0
2020-Feb-12 01:30N 47°44' W 003°22'0 0.0
2020-Feb-12 00:58N 47°44' W 003°22'0 0.0
2020-Feb-12 00:00N 47°44' W 003°22'0 0.0
2020-Feb-11 23:30N 47°44' W 003°22'0 0.0
2020-Feb-11 20:29N 47°44' W 003°22'0 0.0
2020-Feb-11 19:29N 47°44' W 003°22'0 0.0
2020-Feb-11 18:28N 47°44' W 003°22'0 0.0
2020-Feb-11 17:58N 47°44' W 003°22'0 0.0
2020-Feb-11 17:00N 47°44' W 003°22'0 0.0
2020-Feb-11 15:57N 47°44' W 003°22'0 0.0
2020-Feb-11 15:30N 47°44' W 003°22'0 0.0
2020-Feb-11 14:00N 47°44' W 003°22'0 0.0
2020-Feb-11 12:30N 47°44' W 003°22'0 0.0
2020-Feb-11 09:00N 47°44' W 003°22'0 0.0
2020-Feb-11 07:59N 47°44' W 003°22'0 0.0
2020-Feb-11 07:29N 47°44' W 003°22'0 0.0
2020-Feb-11 04:29N 47°44' W 003°22'0 0.0
2020-Feb-11 03:29N 47°44' W 003°22'0 0.0
2020-Feb-11 01:00N 47°44' W 003°22'0 0.0
2020-Feb-11 00:30N 47°44' W 003°22'0 0.0
2020-Feb-11 00:00N 47°44' W 003°22'0 0.0
2020-Feb-10 22:00N 47°44' W 003°22'0 0.0
2020-Feb-10 21:30N 47°44' W 003°22'0 0.0
2020-Feb-10 20:30N 47°44' W 003°22'0 0.0
2020-Feb-10 17:59N 47°44' W 003°22'0 0.0
2020-Feb-10 17:29N 47°44' W 003°22'0 0.0
2020-Feb-10 16:29N 47°44' W 003°22'0 0.0
2020-Feb-10 15:29N 47°44' W 003°22'0 0.0
2020-Feb-10 14:28N 47°44' W 003°22'0 0.0
2020-Feb-10 13:59N 47°44' W 003°22'0 0.0
2020-Feb-10 12:30N 47°44' W 003°22'0 0.0
2020-Feb-10 09:56N 47°44' W 003°22'0 0.0
2020-Feb-10 09:29N 47°44' W 003°22'0 0.0
2020-Feb-10 08:29N 47°44' W 003°22'0 0.0
2020-Feb-10 07:28N 47°44' W 003°22'0 0.0
2020-Feb-10 06:30N 47°44' W 003°22'0 0.0
2020-Feb-10 04:30N 47°44' W 003°22'0 0.0
2020-Feb-10 03:30N 47°44' W 003°22'0 0.0
2020-Feb-10 01:59N 47°44' W 003°22'0 0.0
2020-Feb-09 23:29N 47°44' W 003°22'0 0.0
2020-Feb-09 22:29N 47°44' W 003°22'0 0.0
2020-Feb-09 21:59N 47°44' W 003°22'0 0.0
2020-Feb-09 19:58N 47°44' W 003°22'0 0.0
2020-Feb-09 18:28N 47°44' W 003°22'0 0.0
2020-Feb-09 17:58N 47°44' W 003°22'0 0.0
2020-Feb-09 15:00N 47°44' W 003°22'0 0.0
2020-Feb-09 13:59N 47°44' W 003°22'0 0.0
2020-Feb-09 11:00N 47°44' W 003°22'0 0.0
2020-Feb-09 08:28N 47°44' W 003°22'0 0.0
2020-Feb-09 07:58N 47°44' W 003°22'0 0.0
2020-Feb-09 05:26N 47°44' W 003°22'0 0.0
2020-Feb-09 04:59N 47°44' W 003°22'0 0.0
2020-Feb-09 04:29N 47°44' W 003°22'0 0.0
2020-Feb-09 03:59N 47°44' W 003°22'0 0.0
2020-Feb-09 03:29N 47°44' W 003°22'0 0.0
2020-Feb-08 23:58N 47°44' W 003°22'0 0.0
2020-Feb-08 23:28N 47°44' W 003°22'0 0.0
2020-Feb-08 19:29N 47°44' W 003°22'0 0.0
2020-Feb-08 18:29N 47°44' W 003°22'0 0.0
2020-Feb-08 17:28N 47°44' W 003°22'0 0.0
2020-Feb-08 15:28N 47°44' W 003°22'0 0.0
2020-Feb-08 12:29N 47°44' W 003°22'0 0.0
2020-Feb-08 11:29N 47°44' W 003°22'0 0.0
2020-Feb-08 10:28N 47°44' W 003°22'0 0.0
2020-Feb-08 09:58N 47°44' W 003°22'0 0.0
2020-Feb-08 08:59N 47°44' W 003°22'0 0.0
2020-Feb-08 06:29N 47°44' W 003°22'0 0.0
2020-Feb-08 04:00N 47°44' W 003°22'0 0.0
2020-Feb-08 03:24N 47°44' W 003°22'0 0.0
2020-Feb-08 01:29N 47°44' W 003°22'0 0.0
2020-Feb-08 00:29N 47°44' W 003°22'0 0.0
2020-Feb-07 23:59N 47°44' W 003°22'0 0.0
2020-Feb-07 22:29N 47°44' W 003°22'0 0.0
2020-Feb-07 21:29N 47°44' W 003°22'0 0.0
2020-Feb-07 20:00N 47°44' W 003°22'0 0.0
2020-Feb-07 19:30N 47°44' W 003°22'0 0.0
2020-Feb-07 19:00N 47°44' W 003°22'0 0.0
2020-Feb-07 16:30N 47°44' W 003°22'0 0.0
2020-Feb-07 15:23N 47°44' W 003°22'  

Dump ship's entire track history